THA627 WMKK-WMKL
Flight info
| Callsign | THA627 |
|---|---|
| Flight time | 0h 46m |
| Altitude | 30000 |
| Route | ATIMU1D ATIMU Y506 VPG W525 KAPKO KAPKO1E |
| Aircraft | A320/M-SDE3FGHIRWY/LB1 |
Departure
| Time | 2026-04-21 19:22 |
|---|---|
| Airport | Kuala Lumpur International Airport (WMKK) |
Arrival
| Time | 2026-04-21 20:09 |
|---|---|
| Airport | Langkawi International Airport (WMKL) |
| Time | Latitude | Longitude | Altitude | Speed | Heading |
|---|---|---|---|---|---|
| 2026-04-21 19:03 | 2.74905 | 101.71622 | 73 ft | 0 kts | 326° |
| 2026-04-21 19:13 | 2.74898 | 101.71627 | 77 ft | 3 kts | 327° |
| 2026-04-21 19:13 | 2.74881 | 101.71638 | 83 ft | 3 kts | 331° |
| 2026-04-21 19:14 | 2.74863 | 101.71647 | 67 ft | 3 kts | 338° |
| 2026-04-21 19:14 | 2.74844 | 101.71653 | 69 ft | 3 kts | 353° |
| 2026-04-21 19:14 | 2.74825 | 101.71653 | 73 ft | 3 kts | 35° |
| 2026-04-21 19:14 | 2.74818 | 101.71646 | 73 ft | 1 kts | 56° |
| 2026-04-21 19:15 | 2.74817 | 101.71644 | 73 ft | 0 kts | 56° |
| 2026-04-21 19:17 | 2.74818 | 101.71646 | 73 ft | 1 kts | 56° |
| 2026-04-21 19:18 | 2.74830 | 101.71664 | 62 ft | 5 kts | 56° |
| 2026-04-21 19:18 | 2.74853 | 101.71699 | 69 ft | 7 kts | 56° |
| 2026-04-21 19:18 | 2.74885 | 101.71747 | 68 ft | 9 kts | 56° |
| 2026-04-21 19:18 | 2.74923 | 101.71802 | 70 ft | 9 kts | 56° |
| 2026-04-21 19:19 | 2.74958 | 101.71857 | 76 ft | 10 kts | 59° |
| 2026-04-21 19:19 | 2.75001 | 101.71924 | 73 ft | 13 kts | 57° |
| 2026-04-21 19:19 | 2.75055 | 101.72001 | 76 ft | 15 kts | 50° |
| 2026-04-21 19:19 | 2.75122 | 101.72015 | 77 ft | 9 kts | 328° |
| 2026-04-21 19:20 | 2.75128 | 101.72011 | 71 ft | 0 kts | 328° |
| 2026-04-21 19:20 | 2.75129 | 101.72011 | 71 ft | 1 kts | 328° |
| 2026-04-21 19:20 | 2.75140 | 101.72004 | 75 ft | 2 kts | 328° |
| 2026-04-21 19:20 | 2.75163 | 101.71990 | 70 ft | 7 kts | 328° |
| 2026-04-21 19:21 | 2.75398 | 101.71840 | 73 ft | 76 kts | 327° |
| 2026-04-21 19:21 | 2.75950 | 101.71452 | 74 ft | 71 kts | 326° |
| 2026-04-21 19:21 | 2.76071 | 101.71374 | 72 ft | 2 kts | 331° |
| 2026-04-21 19:21 | 2.76092 | 101.71362 | 69 ft | 5 kts | 330° |
| 2026-04-21 19:22 | 2.76270 | 101.71248 | 61 ft | 74 kts | 325° |
| 2026-04-21 19:22 | 2.76939 | 101.70795 | 68 ft | 153 kts | 326° |
| 2026-04-21 19:22 | 2.77921 | 101.70137 | 560 ft | 175 kts | 326° |
| 2026-04-21 19:22 | 2.79000 | 101.69410 | 1148 ft | 198 kts | 326° |
| 2026-04-21 19:23 | 2.80305 | 101.68778 | 1477 ft | 221 kts | 343° |
| 2026-04-21 19:23 | 2.81851 | 101.68284 | 1861 ft | 245 kts | 341° |
| 2026-04-21 19:23 | 2.83530 | 101.67691 | 2392 ft | 263 kts | 340° |
| 2026-04-21 19:23 | 2.85265 | 101.67056 | 3250 ft | 268 kts | 339° |
| 2026-04-21 19:24 | 2.87026 | 101.66407 | 4156 ft | 270 kts | 339° |
| 2026-04-21 19:24 | 2.88798 | 101.65753 | 5048 ft | 273 kts | 340° |
| 2026-04-21 19:24 | 2.90594 | 101.65095 | 5922 ft | 276 kts | 340° |
| 2026-04-21 19:24 | 2.92406 | 101.64440 | 6753 ft | 279 kts | 340° |
| 2026-04-21 19:25 | 2.94250 | 101.63791 | 7537 ft | 283 kts | 338° |
| 2026-04-21 19:25 | 2.95991 | 101.62848 | 8303 ft | 287 kts | 323° |
| 2026-04-21 19:25 | 2.97423 | 101.61450 | 9065 ft | 291 kts | 307° |
| 2026-04-21 19:25 | 2.98628 | 101.59803 | 9828 ft | 295 kts | 306° |
| 2026-04-21 19:26 | 2.99852 | 101.58126 | 10302 ft | 309 kts | 306° |
| 2026-04-21 19:26 | 3.01165 | 101.56328 | 10520 ft | 329 kts | 306° |
| 2026-04-21 19:26 | 3.02540 | 101.54453 | 11035 ft | 337 kts | 306° |
| 2026-04-21 19:26 | 3.03935 | 101.52555 | 11653 ft | 341 kts | 306° |
| 2026-04-21 19:27 | 3.05348 | 101.50633 | 12292 ft | 345 kts | 306° |
| 2026-04-21 19:27 | 3.06774 | 101.48691 | 12936 ft | 348 kts | 306° |
| 2026-04-21 19:27 | 3.08214 | 101.46726 | 13560 ft | 352 kts | 306° |
| 2026-04-21 19:27 | 3.09667 | 101.44744 | 14121 ft | 355 kts | 306° |
| 2026-04-21 19:28 | 3.11153 | 101.42715 | 14690 ft | 358 kts | 306° |
| 2026-04-21 19:28 | 3.12632 | 101.40692 | 15228 ft | 361 kts | 306° |
| 2026-04-21 19:28 | 3.14120 | 101.38658 | 15783 ft | 364 kts | 306° |
| 2026-04-21 19:28 | 3.15639 | 101.36612 | 16334 ft | 367 kts | 309° |
| 2026-04-21 19:29 | 3.17439 | 101.34790 | 16868 ft | 370 kts | 321° |
| 2026-04-21 19:29 | 3.19511 | 101.33247 | 17415 ft | 373 kts | 324° |
| 2026-04-21 19:29 | 3.21613 | 101.31710 | 17965 ft | 376 kts | 324° |
| 2026-04-21 19:29 | 3.23722 | 101.30159 | 18456 ft | 378 kts | 324° |
| 2026-04-21 19:30 | 3.25853 | 101.28591 | 18916 ft | 381 kts | 324° |
| 2026-04-21 19:30 | 3.27997 | 101.27007 | 19386 ft | 385 kts | 324° |
| 2026-04-21 19:30 | 3.30152 | 101.25415 | 19898 ft | 385 kts | 324° |
| 2026-04-21 19:30 | 3.32294 | 101.23836 | 20658 ft | 379 kts | 324° |
| 2026-04-21 19:31 | 3.34383 | 101.22294 | 21597 ft | 364 kts | 324° |
| 2026-04-21 19:31 | 3.36366 | 101.20828 | 22807 ft | 343 kts | 324° |
| 2026-04-21 19:31 | 3.38252 | 101.19436 | 23668 ft | 334 kts | 324° |
| 2026-04-21 19:31 | 3.40114 | 101.18064 | 24140 ft | 331 kts | 324° |
| 2026-04-21 19:32 | 3.41963 | 101.16701 | 24279 ft | 330 kts | 324° |
| 2026-04-21 19:32 | 3.43812 | 101.15341 | 24387 ft | 329 kts | 324° |
| 2026-04-21 19:32 | 3.45649 | 101.13986 | 24491 ft | 328 kts | 324° |
| 2026-04-21 19:32 | 3.47474 | 101.12638 | 24628 ft | 325 kts | 324° |
| 2026-04-21 19:33 | 3.48682 | 101.11745 | 24701 ft | 325 kts | 324° |
| 2026-04-21 19:33 | 3.51105 | 101.09957 | 24851 ft | 323 kts | 324° |
| 2026-04-21 19:33 | 3.52911 | 101.08625 | 24962 ft | 322 kts | 324° |
| 2026-04-21 19:33 | 3.54711 | 101.07301 | 25073 ft | 320 kts | 324° |
| 2026-04-21 19:34 | 3.56504 | 101.05982 | 25178 ft | 319 kts | 324° |
| 2026-04-21 19:34 | 3.58309 | 101.04653 | 25304 ft | 327 kts | 324° |
| 2026-04-21 19:34 | 3.59559 | 101.03731 | 25385 ft | 334 kts | 324° |
| 2026-04-21 19:34 | 3.61463 | 101.02326 | 25503 ft | 345 kts | 324° |
| 2026-04-21 19:35 | 3.63422 | 101.00882 | 25622 ft | 355 kts | 324° |
| 2026-04-21 19:35 | 3.67604 | 100.97985 | 25857 ft | 376 kts | 332° |
| 2026-04-21 19:35 | 3.69995 | 100.96853 | 25975 ft | 386 kts | 337° |
| 2026-04-21 19:36 | 3.72488 | 100.95750 | 26093 ft | 397 kts | 337° |
| 2026-04-21 19:36 | 3.75044 | 100.94617 | 26209 ft | 407 kts | 337° |
| 2026-04-21 19:36 | 3.77665 | 100.93450 | 26337 ft | 417 kts | 337° |
| 2026-04-21 19:36 | 3.80345 | 100.92255 | 26462 ft | 425 kts | 337° |
| 2026-04-21 19:37 | 3.83057 | 100.91045 | 26712 ft | 430 kts | 337° |
| 2026-04-21 19:37 | 3.85806 | 100.89824 | 27018 ft | 433 kts | 337° |
| 2026-04-21 19:37 | 3.88561 | 100.88600 | 27345 ft | 435 kts | 337° |
| 2026-04-21 19:37 | 3.91334 | 100.87367 | 27654 ft | 437 kts | 337° |
| 2026-04-21 19:38 | 3.94120 | 100.86127 | 27965 ft | 439 kts | 337° |
| 2026-04-21 19:38 | 3.96918 | 100.84879 | 28272 ft | 441 kts | 337° |
| 2026-04-21 19:38 | 3.99731 | 100.83625 | 28586 ft | 443 kts | 337° |
| 2026-04-21 19:38 | 4.02555 | 100.82365 | 28896 ft | 446 kts | 337° |
| 2026-04-21 19:39 | 4.05395 | 100.81098 | 29214 ft | 448 kts | 337° |
| 2026-04-21 19:39 | 4.08248 | 100.79825 | 29529 ft | 450 kts | 337° |
| 2026-04-21 19:39 | 4.11115 | 100.78548 | 29787 ft | 452 kts | 337° |
| 2026-04-21 19:39 | 4.13967 | 100.77279 | 29830 ft | 441 kts | 337° |
| 2026-04-21 19:40 | 4.16727 | 100.76049 | 29833 ft | 430 kts | 338° |
| 2026-04-21 19:40 | 4.22152 | 100.73630 | 29844 ft | 425 kts | 338° |
| 2026-04-21 19:41 | 4.27573 | 100.71199 | 29833 ft | 435 kts | 338° |
| 2026-04-21 19:41 | 4.33223 | 100.68663 | 29838 ft | 455 kts | 337° |
| 2026-04-21 19:42 | 4.39079 | 100.66032 | 29848 ft | 465 kts | 338° |
| 2026-04-21 19:42 | 4.45005 | 100.63372 | 29840 ft | 467 kts | 338° |
| 2026-04-21 19:43 | 4.50971 | 100.60690 | 29858 ft | 467 kts | 337° |
| 2026-04-21 19:43 | 4.56907 | 100.58020 | 29855 ft | 467 kts | 338° |
| 2026-04-21 19:44 | 4.62838 | 100.55356 | 29852 ft | 467 kts | 338° |
| 2026-04-21 19:44 | 4.68769 | 100.52694 | 29853 ft | 467 kts | 338° |
| 2026-04-21 19:45 | 4.74661 | 100.50043 | 29849 ft | 452 kts | 338° |
| 2026-04-21 19:45 | 4.77472 | 100.48772 | 29851 ft | 435 kts | 338° |
| 2026-04-21 19:45 | 4.80238 | 100.47525 | 29850 ft | 440 kts | 338° |
| 2026-04-21 19:46 | 4.85785 | 100.45034 | 29669 ft | 427 kts | 338° |
| 2026-04-21 19:46 | 4.88467 | 100.43827 | 29449 ft | 417 kts | 338° |
| 2026-04-21 19:46 | 4.91060 | 100.42660 | 29670 ft | 406 kts | 338° |
| 2026-04-21 19:46 | 4.93646 | 100.41500 | 29819 ft | 408 kts | 338° |
| 2026-04-21 19:47 | 4.96235 | 100.40341 | 29852 ft | 408 kts | 338° |
| 2026-04-21 19:47 | 5.01416 | 100.38018 | 29844 ft | 408 kts | 338° |
| 2026-04-21 19:48 | 5.06593 | 100.35693 | 29846 ft | 408 kts | 338° |
| 2026-04-21 19:48 | 5.11769 | 100.33357 | 29844 ft | 408 kts | 338° |
| 2026-04-21 19:49 | 5.16946 | 100.31025 | 29839 ft | 408 kts | 338° |
| 2026-04-21 19:49 | 5.22130 | 100.28697 | 29839 ft | 408 kts | 338° |
| 2026-04-21 19:50 | 5.26467 | 100.26749 | 29839 ft | 408 kts | 338° |
| 2026-04-21 19:50 | 5.32502 | 100.23963 | 29829 ft | 409 kts | 337° |
| 2026-04-21 19:51 | 5.37623 | 100.21478 | 29847 ft | 409 kts | 336° |
| 2026-04-21 19:51 | 5.42741 | 100.18996 | 29846 ft | 408 kts | 337° |
| 2026-04-21 19:52 | 5.47864 | 100.16540 | 29698 ft | 408 kts | 337° |
| 2026-04-21 19:52 | 5.50457 | 100.15303 | 28635 ft | 415 kts | 337° |
| 2026-04-21 19:52 | 5.53070 | 100.14056 | 27560 ft | 417 kts | 336° |
| 2026-04-21 19:52 | 5.55679 | 100.12807 | 26683 ft | 413 kts | 336° |
| 2026-04-21 19:53 | 5.58258 | 100.11567 | 25882 ft | 409 kts | 336° |
| 2026-04-21 19:53 | 5.60809 | 100.10341 | 25138 ft | 404 kts | 336° |
| 2026-04-21 19:53 | 5.63335 | 100.09129 | 24431 ft | 400 kts | 336° |
| 2026-04-21 19:53 | 5.65830 | 100.07934 | 23739 ft | 395 kts | 336° |
| 2026-04-21 19:54 | 5.68302 | 100.06751 | 22941 ft | 391 kts | 336° |
| 2026-04-21 19:54 | 5.70741 | 100.05583 | 22131 ft | 386 kts | 336° |
| 2026-04-21 19:54 | 5.73152 | 100.04427 | 21331 ft | 381 kts | 336° |
| 2026-04-21 19:54 | 5.75532 | 100.03288 | 20539 ft | 377 kts | 336° |
| 2026-04-21 19:55 | 5.77882 | 100.02165 | 19770 ft | 372 kts | 335° |
| 2026-04-21 19:55 | 5.80208 | 100.01051 | 19013 ft | 368 kts | 335° |
| 2026-04-21 19:55 | 5.82497 | 99.99952 | 18283 ft | 363 kts | 335° |
| 2026-04-21 19:55 | 5.84770 | 99.98861 | 17484 ft | 359 kts | 335° |
| 2026-04-21 19:56 | 5.87006 | 99.97786 | 16693 ft | 354 kts | 335° |
| 2026-04-21 19:56 | 5.89215 | 99.96725 | 15933 ft | 349 kts | 335° |
| 2026-04-21 19:56 | 5.91395 | 99.95680 | 15199 ft | 345 kts | 335° |
| 2026-04-21 19:56 | 5.93541 | 99.94650 | 14479 ft | 340 kts | 334° |
| 2026-04-21 19:57 | 5.95505 | 99.93360 | 13786 ft | 336 kts | 318° |
| 2026-04-21 19:57 | 5.96995 | 99.91587 | 13056 ft | 332 kts | 303° |
| 2026-04-21 19:57 | 5.98203 | 99.89625 | 12266 ft | 329 kts | 302° |
| 2026-04-21 19:57 | 5.99412 | 99.87654 | 11532 ft | 325 kts | 302° |
| 2026-04-21 19:58 | 6.00593 | 99.85730 | 10826 ft | 322 kts | 302° |
| 2026-04-21 19:58 | 6.01748 | 99.83849 | 10150 ft | 319 kts | 302° |
| 2026-04-21 19:58 | 6.02912 | 99.81950 | 9638 ft | 309 kts | 302° |
| 2026-04-21 19:58 | 6.04020 | 99.80145 | 9151 ft | 299 kts | 302° |
| 2026-04-21 19:59 | 6.05109 | 99.78378 | 8544 ft | 295 kts | 302° |
| 2026-04-21 19:59 | 6.06183 | 99.76636 | 7935 ft | 293 kts | 302° |
| 2026-04-21 19:59 | 6.07265 | 99.74881 | 7214 ft | 296 kts | 302° |
| 2026-04-21 19:59 | 6.08351 | 99.73118 | 6484 ft | 298 kts | 302° |
| 2026-04-21 20:00 | 6.09436 | 99.71336 | 5719 ft | 299 kts | 298° |
| 2026-04-21 20:00 | 6.10120 | 99.69380 | 4952 ft | 298 kts | 281° |
| 2026-04-21 20:00 | 6.10506 | 99.67334 | 4165 ft | 298 kts | 279° |
| 2026-04-21 20:00 | 6.10865 | 99.65285 | 3401 ft | 297 kts | 279° |
| 2026-04-21 20:01 | 6.11219 | 99.63243 | 2620 ft | 296 kts | 279° |
| 2026-04-21 20:01 | 6.11568 | 99.61243 | 2220 ft | 282 kts | 279° |
| 2026-04-21 20:01 | 6.11893 | 99.59383 | 2096 ft | 259 kts | 279° |
| 2026-04-21 20:01 | 6.12197 | 99.57687 | 2089 ft | 233 kts | 282° |
| 2026-04-21 20:02 | 6.12571 | 99.56721 | 2082 ft | 219 kts | 304° |
| 2026-04-21 20:02 | 6.14121 | 99.55481 | 2093 ft | 210 kts | 342° |
| 2026-04-21 20:02 | 6.15534 | 99.55340 | 2095 ft | 204 kts | 9° |
| 2026-04-21 20:02 | 6.16829 | 99.55851 | 2106 ft | 198 kts | 37° |
| 2026-04-21 20:03 | 6.17591 | 99.56882 | 2125 ft | 176 kts | 71° |
| 2026-04-21 20:03 | 6.18042 | 99.57947 | 2095 ft | 159 kts | 65° |
| 2026-04-21 20:03 | 6.18514 | 99.58927 | 2086 ft | 153 kts | 65° |
| 2026-04-21 20:03 | 6.18973 | 99.59879 | 2096 ft | 151 kts | 65° |
| 2026-04-21 20:04 | 6.19429 | 99.60824 | 2100 ft | 150 kts | 65° |
| 2026-04-21 20:04 | 6.19882 | 99.61765 | 2106 ft | 150 kts | 65° |
| 2026-04-21 20:04 | 6.20337 | 99.62708 | 2108 ft | 149 kts | 65° |
| 2026-04-21 20:04 | 6.20784 | 99.63634 | 2110 ft | 147 kts | 65° |
| 2026-04-21 20:05 | 6.21342 | 99.64487 | 2111 ft | 146 kts | 50° |
| 2026-04-21 20:05 | 6.22061 | 99.65208 | 2105 ft | 146 kts | 42° |
| 2026-04-21 20:05 | 6.22854 | 99.65856 | 2063 ft | 147 kts | 38° |
| 2026-04-21 20:05 | 6.23685 | 99.66472 | 1923 ft | 147 kts | 36° |
| 2026-04-21 20:06 | 6.24507 | 99.67055 | 1758 ft | 146 kts | 36° |
| 2026-04-21 20:06 | 6.25351 | 99.67642 | 1587 ft | 145 kts | 35° |
| 2026-04-21 20:06 | 6.26184 | 99.68215 | 1397 ft | 145 kts | 35° |
| 2026-04-21 20:06 | 6.27013 | 99.68784 | 1213 ft | 144 kts | 35° |
| 2026-04-21 20:07 | 6.27560 | 99.69159 | 1085 ft | 143 kts | 35° |
| 2026-04-21 20:07 | 6.28382 | 99.69720 | 910 ft | 142 kts | 35° |
| 2026-04-21 20:07 | 6.29195 | 99.70276 | 730 ft | 141 kts | 34° |
| 2026-04-21 20:07 | 6.30001 | 99.70827 | 548 ft | 139 kts | 34° |
| 2026-04-21 20:08 | 6.30800 | 99.71375 | 369 ft | 139 kts | 35° |
| 2026-04-21 20:08 | 6.31594 | 99.71925 | 179 ft | 138 kts | 34° |
| 2026-04-21 20:08 | 6.32381 | 99.72463 | 46 ft | 131 kts | 34° |
| 2026-04-21 20:08 | 6.33029 | 99.72902 | 37 ft | 90 kts | 33° |
| 2026-04-21 20:09 | 6.33458 | 99.73190 | 33 ft | 64 kts | 33° |
| 2026-04-21 20:09 | 6.33649 | 99.73322 | 33 ft | 24 kts | 34° |
| 2026-04-21 20:09 | 6.33729 | 99.73357 | 34 ft | 10 kts | 343° |
| 2026-04-21 20:09 | 6.33782 | 99.73298 | 34 ft | 13 kts | 303° |
| 2026-04-21 20:10 | 6.33787 | 99.73291 | 33 ft | 0 kts | 303° |
| 2026-04-21 20:10 | 6.33790 | 99.73286 | 33 ft | 0 kts | 303° |
| 2026-04-21 20:10 | 6.33794 | 99.73279 | 33 ft | 4 kts | 303° |
| 2026-04-21 20:11 | 6.33818 | 99.73243 | 33 ft | 8 kts | 303° |
| 2026-04-21 20:11 | 6.33855 | 99.73196 | 33 ft | 9 kts | 326° |
| 2026-04-21 20:11 | 6.33911 | 99.73214 | 33 ft | 9 kts | 36° |
| 2026-04-21 20:11 | 6.33970 | 99.73253 | 33 ft | 11 kts | 32° |
| 2026-04-21 20:12 | 6.34034 | 99.73299 | 33 ft | 12 kts | 36° |
| 2026-04-21 20:12 | 6.34057 | 99.73316 | 33 ft | 0 kts | 36° |
| 2026-04-21 20:12 | 6.34058 | 99.73316 | 33 ft | 1 kts | 36° |
| 2026-04-21 20:12 | 6.34068 | 99.73323 | 54 ft | 4 kts | 33° |
| 2026-04-21 20:13 | 6.34095 | 99.73320 | 33 ft | 3 kts | 300° |
| 2026-04-21 20:13 | 6.34098 | 99.73313 | 33 ft | 1 kts | 300° |
| 2026-04-21 20:13 | 6.34106 | 99.73302 | 33 ft | 3 kts | 304° |
| 2026-04-21 20:13 | 6.34119 | 99.73282 | 33 ft | 0 kts | 303° |